sensor_id;sensor_type;location;lat;lon;timestamp;P1;durP1;ratioP1;P2;durP2;ratioP2
58615;SDS011;44385;51.992;4.206;2022-07-23T00:00:20;6.25;;;1.90;;
58615;SDS011;44385;51.992;4.206;2022-07-23T00:02:47;3.78;;;1.80;;
58615;SDS011;44385;51.992;4.206;2022-07-23T00:05:13;2.10;;;1.88;;
58615;SDS011;44385;51.992;4.206;2022-07-23T00:07:40;5.03;;;1.75;;
58615;SDS011;44385;51.992;4.206;2022-07-23T00:10:07;3.28;;;1.88;;
58615;SDS011;44385;51.992;4.206;2022-07-23T00:12:35;2.28;;;1.75;;
58615;SDS011;44385;51.992;4.206;2022-07-23T00:15:02;3.80;;;2.10;;
58615;SDS011;44385;51.992;4.206;2022-07-23T00:17:28;3.75;;;2.03;;
58615;SDS011;44385;51.992;4.206;2022-07-23T00:19:54;2.75;;;1.80;;
58615;SDS011;44385;51.992;4.206;2022-07-23T00:22:21;3.05;;;2.05;;
58615;SDS011;44385;51.992;4.206;2022-07-23T00:24:47;2.50;;;1.90;;
58615;SDS011;44385;51.992;4.206;2022-07-23T00:27:16;3.33;;;1.85;;
58615;SDS011;44385;51.992;4.206;2022-07-23T00:29:44;3.40;;;1.92;;
58615;SDS011;44385;51.992;4.206;2022-07-23T00:32:10;5.35;;;2.22;;
58615;SDS011;44385;51.992;4.206;2022-07-23T00:34:37;3.17;;;1.80;;
58615;SDS011;44385;51.992;4.206;2022-07-23T00:37:03;5.28;;;2.08;;
58615;SDS011;44385;51.992;4.206;2022-07-23T00:39:30;2.28;;;1.92;;
58615;SDS011;44385;51.992;4.206;2022-07-23T00:41:56;3.30;;;1.80;;
58615;SDS011;44385;51.992;4.206;2022-07-23T00:44:23;5.85;;;1.67;;
58615;SDS011;44385;51.992;4.206;2022-07-23T00:46:52;3.35;;;1.60;;
58615;SDS011;44385;51.992;4.206;2022-07-23T00:49:19;2.20;;;1.88;;
58615;SDS011;44385;51.992;4.206;2022-07-23T00:51:46;3.78;;;1.80;;
58615;SDS011;44385;51.992;4.206;2022-07-23T00:54:12;2.67;;;1.63;;
58615;SDS011;44385;51.992;4.206;2022-07-23T00:56:39;2.88;;;1.52;;
58615;SDS011;44385;51.992;4.206;2022-07-23T00:59:05;2.60;;;1.50;;
58615;SDS011;44385;51.992;4.206;2022-07-23T01:01:32;3.97;;;1.52;;
58615;SDS011;44385;51.992;4.206;2022-07-23T01:04:00;1.58;;;1.42;;
58615;SDS011;44385;51.992;4.206;2022-07-23T01:06:26;2.33;;;1.67;;
58615;SDS011;44385;51.992;4.206;2022-07-23T01:08:53;4.28;;;1.73;;
58615;SDS011;44385;51.992;4.206;2022-07-23T01:11:19;2.40;;;1.63;;
58615;SDS011;44385;51.992;4.206;2022-07-23T01:13:46;3.63;;;2.05;;
58615;SDS011;44385;51.992;4.206;2022-07-23T01:16:13;3.60;;;1.60;;
58615;SDS011;44385;51.992;4.206;2022-07-23T01:18:39;2.25;;;1.60;;
58615;SDS011;44385;51.992;4.206;2022-07-23T01:21:07;2.33;;;1.42;;
58615;SDS011;44385;51.992;4.206;2022-07-23T01:23:35;2.20;;;1.70;;
58615;SDS011;44385;51.992;4.206;2022-07-23T01:26:02;3.13;;;1.63;;
58615;SDS011;44385;51.992;4.206;2022-07-23T01:28:28;2.55;;;1.25;;
58615;SDS011;44385;51.992;4.206;2022-07-23T01:30:55;2.90;;;1.58;;
58615;SDS011;44385;51.992;4.206;2022-07-23T01:33:21;2.58;;;1.50;;
58615;SDS011;44385;51.992;4.206;2022-07-23T01:35:48;3.33;;;1.50;;
58615;SDS011;44385;51.992;4.206;2022-07-23T01:38:14;3.65;;;1.40;;
58615;SDS011;44385;51.992;4.206;2022-07-23T01:40:42;5.82;;;1.45;;
58615;SDS011;44385;51.992;4.206;2022-07-23T01:43:08;3.53;;;1.70;;
58615;SDS011;44385;51.992;4.206;2022-07-23T01:45:35;2.78;;;1.35;;
58615;SDS011;44385;51.992;4.206;2022-07-23T01:48:01;3.67;;;1.60;;
58615;SDS011;44385;51.992;4.206;2022-07-23T01:50:28;3.83;;;1.60;;
58615;SDS011;44385;51.992;4.206;2022-07-23T01:52:54;2.53;;;1.50;;
58615;SDS011;44385;51.992;4.206;2022-07-23T01:55:21;6.60;;;1.98;;
58615;SDS011;44385;51.992;4.206;2022-07-23T01:57:48;2.78;;;1.65;;
58615;SDS011;44385;51.992;4.206;2022-07-23T02:00:15;2.25;;;1.45;;
58615;SDS011;44385;51.992;4.206;2022-07-23T02:02:42;2.80;;;1.63;;
58615;SDS011;44385;51.992;4.206;2022-07-23T02:05:08;3.50;;;1.73;;
58615;SDS011;44385;51.992;4.206;2022-07-23T02:07:35;3.78;;;2.03;;
58615;SDS011;44385;51.992;4.206;2022-07-23T02:10:01;2.08;;;1.45;;
58615;SDS011;44385;51.992;4.206;2022-07-23T02:12:27;1.67;;;1.58;;
58615;SDS011;44385;51.992;4.206;2022-07-23T02:14:55;4.82;;;1.63;;
58615;SDS011;44385;51.992;4.206;2022-07-23T02:17:22;3.45;;;1.90;;
58615;SDS011;44385;51.992;4.206;2022-07-23T02:19:48;1.73;;;1.50;;
58615;SDS011;44385;51.992;4.206;2022-07-23T02:22:14;1.75;;;1.60;;
58615;SDS011;44385;51.992;4.206;2022-07-23T02:24:41;1.95;;;1.75;;
58615;SDS011;44385;51.992;4.206;2022-07-23T02:27:07;4.07;;;1.90;;
58615;SDS011;44385;51.992;4.206;2022-07-23T02:29:34;2.10;;;1.50;;
58615;SDS011;44385;51.992;4.206;2022-07-23T02:32:01;1.98;;;1.60;;
58615;SDS011;44385;51.992;4.206;2022-07-23T02:34:28;2.85;;;1.75;;
58615;SDS011;44385;51.992;4.206;2022-07-23T02:36:54;3.58;;;2.17;;
58615;SDS011;44385;51.992;4.206;2022-07-23T02:39:20;3.92;;;2.00;;
58615;SDS011;44385;51.992;4.206;2022-07-23T02:41:47;7.32;;;1.80;;
58615;SDS011;44385;51.992;4.206;2022-07-23T02:44:13;3.53;;;1.60;;
58615;SDS011;44385;51.992;4.206;2022-07-23T02:46:40;3.85;;;1.73;;
58615;SDS011;44385;51.992;4.206;2022-07-23T02:49:07;1.90;;;1.70;;
58615;SDS011;44385;51.992;4.206;2022-07-23T02:51:34;3.83;;;1.85;;
58615;SDS011;44385;51.992;4.206;2022-07-23T02:54:00;2.85;;;1.83;;
58615;SDS011;44385;51.992;4.206;2022-07-23T02:56:27;4.70;;;2.10;;
58615;SDS011;44385;51.992;4.206;2022-07-23T02:58:53;6.45;;;2.42;;
58615;SDS011;44385;51.992;4.206;2022-07-23T03:01:20;2.50;;;2.17;;
58615;SDS011;44385;51.992;4.206;2022-07-23T03:03:46;4.43;;;2.00;;
58615;SDS011;44385;51.992;4.206;2022-07-23T03:06:14;5.25;;;2.70;;
58615;SDS011;44385;51.992;4.206;2022-07-23T03:08:40;3.38;;;1.98;;
58615;SDS011;44385;51.992;4.206;2022-07-23T03:11:07;3.67;;;2.20;;
58615;SDS011;44385;51.992;4.206;2022-07-23T03:13:36;4.22;;;2.10;;
58615;SDS011;44385;51.992;4.206;2022-07-23T03:16:02;3.78;;;2.33;;
58615;SDS011;44385;51.992;4.206;2022-07-23T03:18:29;2.63;;;2.00;;
58615;SDS011;44385;51.992;4.206;2022-07-23T03:20:55;3.45;;;2.10;;
58615;SDS011;44385;51.992;4.206;2022-07-23T03:23:23;3.67;;;2.50;;
58615;SDS011;44385;51.992;4.206;2022-07-23T03:25:49;5.57;;;2.40;;
58615;SDS011;44385;51.992;4.206;2022-07-23T03:28:16;5.30;;;2.50;;
58615;SDS011;44385;51.992;4.206;2022-07-23T03:30:42;4.70;;;2.33;;
58615;SDS011;44385;51.992;4.206;2022-07-23T03:33:11;3.03;;;1.95;;
58615;SDS011;44385;51.992;4.206;2022-07-23T03:35:37;4.32;;;2.28;;
58615;SDS011;44385;51.992;4.206;2022-07-23T03:38:04;7.47;;;2.72;;
58615;SDS011;44385;51.992;4.206;2022-07-23T03:40:32;4.00;;;2.42;;
58615;SDS011;44385;51.992;4.206;2022-07-23T03:42:58;5.35;;;2.63;;
58615;SDS011;44385;51.992;4.206;2022-07-23T03:45:25;3.08;;;2.70;;
58615;SDS011;44385;51.992;4.206;2022-07-23T03:47:51;4.38;;;2.58;;
58615;SDS011;44385;51.992;4.206;2022-07-23T03:50:18;4.68;;;3.20;;
58615;SDS011;44385;51.992;4.206;2022-07-23T03:52:44;3.47;;;2.53;;
58615;SDS011;44385;51.992;4.206;2022-07-23T03:55:11;3.80;;;3.10;;
58615;SDS011;44385;51.992;4.206;2022-07-23T03:57:39;5.47;;;2.40;;
58615;SDS011;44385;51.992;4.206;2022-07-23T04:00:06;6.43;;;2.78;;
58615;SDS011;44385;51.992;4.206;2022-07-23T04:02:33;4.55;;;2.72;;
58615;SDS011;44385;51.992;4.206;2022-07-23T04:05:00;5.75;;;3.28;;
58615;SDS011;44385;51.992;4.206;2022-07-23T04:07:26;6.32;;;3.13;;
58615;SDS011;44385;51.992;4.206;2022-07-23T04:09:53;4.47;;;2.20;;
58615;SDS011;44385;51.992;4.206;2022-07-23T04:12:19;5.72;;;2.78;;
58615;SDS011;44385;51.992;4.206;2022-07-23T04:14:47;4.53;;;2.70;;
58615;SDS011;44385;51.992;4.206;2022-07-23T04:17:13;4.32;;;2.90;;
58615;SDS011;44385;51.992;4.206;2022-07-23T04:19:40;5.90;;;3.10;;
58615;SDS011;44385;51.992;4.206;2022-07-23T04:22:08;4.93;;;3.05;;
58615;SDS011;44385;51.992;4.206;2022-07-23T04:24:35;3.70;;;2.70;;
58615;SDS011;44385;51.992;4.206;2022-07-23T04:27:02;5.20;;;3.13;;
58615;SDS011;44385;51.992;4.206;2022-07-23T04:29:28;4.05;;;2.90;;
58615;SDS011;44385;51.992;4.206;2022-07-23T04:31:56;5.65;;;2.80;;
58615;SDS011;44385;51.992;4.206;2022-07-23T04:34:23;3.72;;;2.58;;
58615;SDS011;44385;51.992;4.206;2022-07-23T04:36:51;6.40;;;2.90;;
58615;SDS011;44385;51.992;4.206;2022-07-23T04:39:18;3.55;;;2.97;;
58615;SDS011;44385;51.992;4.206;2022-07-23T04:41:44;6.97;;;3.53;;
58615;SDS011;44385;51.992;4.206;2022-07-23T04:44:10;6.60;;;3.40;;
58615;SDS011;44385;51.992;4.206;2022-07-23T04:46:37;8.20;;;4.18;;
58615;SDS011;44385;51.992;4.206;2022-07-23T04:49:05;4.95;;;3.92;;
58615;SDS011;44385;51.992;4.206;2022-07-23T04:51:31;5.30;;;3.17;;
58615;SDS011;44385;51.992;4.206;2022-07-23T04:53:58;5.82;;;3.45;;
58615;SDS011;44385;51.992;4.206;2022-07-23T04:56:26;4.20;;;2.90;;
58615;SDS011;44385;51.992;4.206;2022-07-23T04:58:52;8.30;;;3.67;;
58615;SDS011;44385;51.992;4.206;2022-07-23T05:01:19;4.47;;;2.80;;
58615;SDS011;44385;51.992;4.206;2022-07-23T05:03:45;6.47;;;3.53;;
58615;SDS011;44385;51.992;4.206;2022-07-23T05:06:14;3.72;;;3.33;;
58615;SDS011;44385;51.992;4.206;2022-07-23T05:08:41;9.45;;;7.38;;
58615;SDS011;44385;51.992;4.206;2022-07-23T05:11:07;6.93;;;5.38;;
58615;SDS011;44385;51.992;4.206;2022-07-23T05:13:33;8.88;;;5.80;;
58615;SDS011;44385;51.992;4.206;2022-07-23T05:16:00;10.40;;;5.65;;
58615;SDS011;44385;51.992;4.206;2022-07-23T05:18:26;7.28;;;4.97;;
58615;SDS011;44385;51.992;4.206;2022-07-23T05:20:53;4.55;;;3.80;;
58615;SDS011;44385;51.992;4.206;2022-07-23T05:23:20;7.63;;;3.28;;
58615;SDS011;44385;51.992;4.206;2022-07-23T05:25:47;6.10;;;3.55;;
58615;SDS011;44385;51.992;4.206;2022-07-23T05:28:13;5.25;;;2.75;;
58615;SDS011;44385;51.992;4.206;2022-07-23T05:30:40;4.32;;;2.65;;
58615;SDS011;44385;51.992;4.206;2022-07-23T05:33:06;4.35;;;2.90;;
58615;SDS011;44385;51.992;4.206;2022-07-23T05:35:33;5.35;;;3.42;;
58615;SDS011;44385;51.992;4.206;2022-07-23T05:38:00;6.85;;;3.33;;
58615;SDS011;44385;51.992;4.206;2022-07-23T05:40:27;5.55;;;3.67;;
58615;SDS011;44385;51.992;4.206;2022-07-23T05:42:54;4.20;;;3.08;;
58615;SDS011;44385;51.992;4.206;2022-07-23T05:45:20;4.10;;;3.08;;
58615;SDS011;44385;51.992;4.206;2022-07-23T05:47:47;3.15;;;2.53;;
58615;SDS011;44385;51.992;4.206;2022-07-23T05:50:14;4.28;;;2.22;;
58615;SDS011;44385;51.992;4.206;2022-07-23T05:52:41;5.22;;;2.70;;
58615;SDS011;44385;51.992;4.206;2022-07-23T05:55:08;3.65;;;2.50;;
58615;SDS011;44385;51.992;4.206;2022-07-23T05:57:36;4.25;;;2.72;;
58615;SDS011;44385;51.992;4.206;2022-07-23T06:00:03;4.47;;;2.88;;
58615;SDS011;44385;51.992;4.206;2022-07-23T06:02:30;4.88;;;3.15;;
58615;SDS011;44385;51.992;4.206;2022-07-23T06:04:56;2.80;;;2.35;;
58615;SDS011;44385;51.992;4.206;2022-07-23T06:07:22;5.03;;;2.85;;
58615;SDS011;44385;51.992;4.206;2022-07-23T06:09:49;4.03;;;2.72;;
58615;SDS011;44385;51.992;4.206;2022-07-23T06:12:15;2.88;;;2.40;;
58615;SDS011;44385;51.992;4.206;2022-07-23T06:14:43;4.28;;;2.47;;
58615;SDS011;44385;51.992;4.206;2022-07-23T06:17:10;3.53;;;3.20;;
58615;SDS011;44385;51.992;4.206;2022-07-23T06:19:36;4.95;;;3.55;;
58615;SDS011;44385;51.992;4.206;2022-07-23T06:22:02;5.80;;;3.05;;
58615;SDS011;44385;51.992;4.206;2022-07-23T06:24:29;6.95;;;2.38;;
58615;SDS011;44385;51.992;4.206;2022-07-23T06:26:55;3.70;;;2.60;;
58615;SDS011;44385;51.992;4.206;2022-07-23T06:29:22;3.38;;;2.95;;
58615;SDS011;44385;51.992;4.206;2022-07-23T06:31:49;4.50;;;3.10;;
58615;SDS011;44385;51.992;4.206;2022-07-23T06:34:16;3.75;;;2.22;;
58615;SDS011;44385;51.992;4.206;2022-07-23T06:36:42;4.85;;;3.13;;
58615;SDS011;44385;51.992;4.206;2022-07-23T06:39:09;4.28;;;2.25;;
58615;SDS011;44385;51.992;4.206;2022-07-23T06:41:35;2.28;;;2.08;;
58615;SDS011;44385;51.992;4.206;2022-07-23T06:44:02;4.88;;;1.65;;
58615;SDS011;44385;51.992;4.206;2022-07-23T06:46:28;10.52;;;2.28;;
58615;SDS011;44385;51.992;4.206;2022-07-23T06:48:56;3.85;;;2.10;;
58615;SDS011;44385;51.992;4.206;2022-07-23T06:51:22;3.65;;;2.05;;
58615;SDS011;44385;51.992;4.206;2022-07-23T06:53:49;4.53;;;1.70;;
58615;SDS011;44385;51.992;4.206;2022-07-23T06:56:15;7.25;;;1.92;;
58615;SDS011;44385;51.992;4.206;2022-07-23T06:58:42;3.50;;;1.70;;
58615;SDS011;44385;51.992;4.206;2022-07-23T07:01:08;3.13;;;1.90;;
58615;SDS011;44385;51.992;4.206;2022-07-23T07:03:35;6.03;;;2.50;;
58615;SDS011;44385;51.992;4.206;2022-07-23T07:06:02;2.50;;;2.13;;
58615;SDS011;44385;51.992;4.206;2022-07-23T07:08:29;4.40;;;1.75;;
58615;SDS011;44385;51.992;4.206;2022-07-23T07:10:56;2.78;;;1.70;;
58615;SDS011;44385;51.992;4.206;2022-07-23T07:13:22;1.70;;;1.50;;
58615;SDS011;44385;51.992;4.206;2022-07-23T07:15:48;3.13;;;2.00;;
58615;SDS011;44385;51.992;4.206;2022-07-23T07:18:15;3.10;;;1.40;;
58615;SDS011;44385;51.992;4.206;2022-07-23T07:20:41;4.22;;;2.05;;
58615;SDS011;44385;51.992;4.206;2022-07-23T07:23:09;7.07;;;2.83;;
58615;SDS011;44385;51.992;4.206;2022-07-23T07:25:35;3.28;;;2.28;;
58615;SDS011;44385;51.992;4.206;2022-07-23T07:28:02;3.65;;;2.08;;
58615;SDS011;44385;51.992;4.206;2022-07-23T07:30:28;3.40;;;2.00;;
58615;SDS011;44385;51.992;4.206;2022-07-23T07:32:55;6.72;;;2.55;;
58615;SDS011;44385;51.992;4.206;2022-07-23T07:35:21;4.35;;;1.88;;
58615;SDS011;44385;51.992;4.206;2022-07-23T07:37:47;7.25;;;2.63;;
58615;SDS011;44385;51.992;4.206;2022-07-23T07:40:15;4.43;;;1.77;;
58615;SDS011;44385;51.992;4.206;2022-07-23T07:42:45;6.95;;;2.03;;
58615;SDS011;44385;51.992;4.206;2022-07-23T07:45:11;3.03;;;1.88;;
58615;SDS011;44385;51.992;4.206;2022-07-23T07:47:38;3.92;;;2.33;;
58615;SDS011;44385;51.992;4.206;2022-07-23T07:50:04;5.18;;;2.45;;
58615;SDS011;44385;51.992;4.206;2022-07-23T07:52:31;6.18;;;2.15;;
58615;SDS011;44385;51.992;4.206;2022-07-23T07:54:57;7.45;;;2.10;;
58615;SDS011;44385;51.992;4.206;2022-07-23T07:57:25;3.95;;;2.13;;
58615;SDS011;44385;51.992;4.206;2022-07-23T07:59:51;2.53;;;2.00;;
58615;SDS011;44385;51.992;4.206;2022-07-23T08:02:18;4.07;;;2.25;;
58615;SDS011;44385;51.992;4.206;2022-07-23T08:04:44;5.32;;;1.90;;
58615;SDS011;44385;51.992;4.206;2022-07-23T08:07:11;3.47;;;1.90;;
58615;SDS011;44385;51.992;4.206;2022-07-23T08:09:38;3.17;;;2.05;;
58615;SDS011;44385;51.992;4.206;2022-07-23T08:12:04;3.92;;;2.40;;
58615;SDS011;44385;51.992;4.206;2022-07-23T08:14:32;4.03;;;1.88;;
58615;SDS011;44385;51.992;4.206;2022-07-23T08:16:59;4.68;;;2.45;;
58615;SDS011;44385;51.992;4.206;2022-07-23T08:19:26;3.38;;;2.00;;
58615;SDS011;44385;51.992;4.206;2022-07-23T08:21:52;4.07;;;1.83;;
58615;SDS011;44385;51.992;4.206;2022-07-23T08:24:19;3.42;;;1.77;;
58615;SDS011;44385;51.992;4.206;2022-07-23T08:26:45;5.57;;;1.95;;
58615;SDS011;44385;51.992;4.206;2022-07-23T08:29:12;4.20;;;1.98;;
58615;SDS011;44385;51.992;4.206;2022-07-23T08:31:39;4.32;;;1.80;;
58615;SDS011;44385;51.992;4.206;2022-07-23T08:34:06;3.38;;;1.95;;
58615;SDS011;44385;51.992;4.206;2022-07-23T08:36:32;3.92;;;2.20;;
58615;SDS011;44385;51.992;4.206;2022-07-23T08:38:59;3.30;;;1.67;;
58615;SDS011;44385;51.992;4.206;2022-07-23T08:41:28;4.45;;;2.35;;
58615;SDS011;44385;51.992;4.206;2022-07-23T08:43:55;4.10;;;2.30;;
58615;SDS011;44385;51.992;4.206;2022-07-23T08:46:21;3.50;;;2.05;;
58615;SDS011;44385;51.992;4.206;2022-07-23T08:48:50;5.80;;;2.15;;
58615;SDS011;44385;51.992;4.206;2022-07-23T08:51:16;5.95;;;2.65;;
58615;SDS011;44385;51.992;4.206;2022-07-23T08:53:43;5.90;;;1.75;;
58615;SDS011;44385;51.992;4.206;2022-07-23T08:56:10;4.75;;;2.35;;
58615;SDS011;44385;51.992;4.206;2022-07-23T08:58:36;3.92;;;1.70;;
58615;SDS011;44385;51.992;4.206;2022-07-23T09:01:03;3.00;;;1.90;;
58615;SDS011;44385;51.992;4.206;2022-07-23T09:03:30;4.28;;;2.10;;
58615;SDS011;44385;51.992;4.206;2022-07-23T09:05:59;2.75;;;1.83;;
58615;SDS011;44385;51.992;4.206;2022-07-23T09:08:33;5.50;;;2.08;;
58615;SDS011;44385;51.992;4.206;2022-07-23T09:11:01;3.22;;;1.80;;
58615;SDS011;44385;51.992;4.206;2022-07-23T09:13:32;3.72;;;1.80;;
58615;SDS011;44385;51.992;4.206;2022-07-23T09:16:05;2.60;;;1.80;;
58615;SDS011;44385;51.992;4.206;2022-07-23T09:18:36;4.40;;;2.20;;
58615;SDS011;44385;51.992;4.206;2022-07-23T09:21:09;2.40;;;1.90;;
58615;SDS011;44385;51.992;4.206;2022-07-23T09:23:37;4.93;;;2.22;;
58615;SDS011;44385;51.992;4.206;2022-07-23T09:26:05;3.67;;;2.03;;
58615;SDS011;44385;51.992;4.206;2022-07-23T09:31:09;2.08;;;1.90;;
58615;SDS011;44385;51.992;4.206;2022-07-23T09:33:35;3.03;;;2.40;;
58615;SDS011;44385;51.992;4.206;2022-07-23T09:36:04;3.95;;;2.40;;
58615;SDS011;44385;51.992;4.206;2022-07-23T09:38:32;2.65;;;2.03;;
58615;SDS011;44385;51.992;4.206;2022-07-23T09:41:05;3.17;;;2.38;;
58615;SDS011;44385;51.992;4.206;2022-07-23T09:43:31;4.03;;;2.15;;
58615;SDS011;44385;51.992;4.206;2022-07-23T09:48:39;4.43;;;2.30;;
58615;SDS011;44385;51.992;4.206;2022-07-23T09:51:06;3.65;;;1.67;;
58615;SDS011;44385;51.992;4.206;2022-07-23T09:53:33;3.47;;;2.10;;
58615;SDS011;44385;51.992;4.206;2022-07-23T09:56:00;3.20;;;2.35;;
58615;SDS011;44385;51.992;4.206;2022-07-23T09:58:26;2.38;;;2.03;;
58615;SDS011;44385;51.992;4.206;2022-07-23T10:00:53;4.30;;;1.67;;
58615;SDS011;44385;51.992;4.206;2022-07-23T10:03:20;4.13;;;2.40;;
58615;SDS011;44385;51.992;4.206;2022-07-23T10:05:46;5.68;;;1.92;;
58615;SDS011;44385;51.992;4.206;2022-07-23T10:08:13;3.80;;;2.28;;
58615;SDS011;44385;51.992;4.206;2022-07-23T10:10:40;5.20;;;2.70;;
58615;SDS011;44385;51.992;4.206;2022-07-23T10:13:07;4.55;;;2.53;;
58615;SDS011;44385;51.992;4.206;2022-07-23T10:15:53;3.60;;;2.15;;
58615;SDS011;44385;51.992;4.206;2022-07-23T10:18:20;3.65;;;2.30;;
58615;SDS011;44385;51.992;4.206;2022-07-23T10:20:46;3.85;;;2.20;;
58615;SDS011;44385;51.992;4.206;2022-07-23T10:23:14;3.75;;;2.78;;
58615;SDS011;44385;51.992;4.206;2022-07-23T10:25:45;4.55;;;2.30;;
58615;SDS011;44385;51.992;4.206;2022-07-23T10:31:02;4.28;;;2.58;;
58615;SDS011;44385;51.992;4.206;2022-07-23T10:33:32;4.97;;;3.00;;
58615;SDS011;44385;51.992;4.206;2022-07-23T10:36:07;6.95;;;3.47;;
58615;SDS011;44385;51.992;4.206;2022-07-23T10:38:37;4.47;;;3.40;;
58615;SDS011;44385;51.992;4.206;2022-07-23T10:41:05;3.95;;;3.55;;
58615;SDS011;44385;51.992;4.206;2022-07-23T10:43:31;7.32;;;3.15;;
58615;SDS011;44385;51.992;4.206;2022-07-23T10:48:39;4.93;;;2.67;;
58615;SDS011;44385;51.992;4.206;2022-07-23T10:51:06;4.72;;;2.47;;
58615;SDS011;44385;51.992;4.206;2022-07-23T10:56:16;4.82;;;2.58;;
58615;SDS011;44385;51.992;4.206;2022-07-23T10:58:46;3.67;;;2.47;;
58615;SDS011;44385;51.992;4.206;2022-07-23T11:01:31;6.32;;;2.45;;
58615;SDS011;44385;51.992;4.206;2022-07-23T11:03:58;5.07;;;2.33;;
58615;SDS011;44385;51.992;4.206;2022-07-23T11:09:23;4.70;;;2.78;;
58615;SDS011;44385;51.992;4.206;2022-07-23T11:11:50;5.82;;;2.75;;
58615;SDS011;44385;51.992;4.206;2022-07-23T11:17:22;5.90;;;2.47;;
58615;SDS011;44385;51.992;4.206;2022-07-23T11:22:34;6.40;;;3.20;;
58615;SDS011;44385;51.992;4.206;2022-07-23T11:25:01;4.72;;;2.40;;
58615;SDS011;44385;51.992;4.206;2022-07-23T11:27:37;6.78;;;2.33;;
58615;SDS011;44385;51.992;4.206;2022-07-23T11:30:04;6.20;;;2.00;;
58615;SDS011;44385;51.992;4.206;2022-07-23T11:32:35;6.93;;;2.70;;
58615;SDS011;44385;51.992;4.206;2022-07-23T11:35:05;4.03;;;2.63;;
58615;SDS011;44385;51.992;4.206;2022-07-23T11:37:44;8.15;;;3.03;;
58615;SDS011;44385;51.992;4.206;2022-07-23T11:40:12;2.65;;;2.25;;
58615;SDS011;44385;51.992;4.206;2022-07-23T11:42:51;4.80;;;3.08;;
58615;SDS011;44385;51.992;4.206;2022-07-23T11:45:18;5.50;;;2.50;;
58615;SDS011;44385;51.992;4.206;2022-07-23T11:47:44;4.30;;;2.35;;
58615;SDS011;44385;51.992;4.206;2022-07-23T11:50:10;4.40;;;2.40;;
58615;SDS011;44385;51.992;4.206;2022-07-23T11:52:37;5.30;;;2.58;;
58615;SDS011;44385;51.992;4.206;2022-07-23T11:55:05;5.63;;;2.60;;
58615;SDS011;44385;51.992;4.206;2022-07-23T11:57:32;5.13;;;2.50;;
58615;SDS011;44385;51.992;4.206;2022-07-23T12:00:03;3.42;;;3.05;;
58615;SDS011;44385;51.992;4.206;2022-07-23T12:02:30;4.47;;;2.35;;
58615;SDS011;44385;51.992;4.206;2022-07-23T12:04:56;3.65;;;3.13;;
58615;SDS011;44385;51.992;4.206;2022-07-23T12:07:26;3.72;;;2.88;;
58615;SDS011;44385;51.992;4.206;2022-07-23T12:09:54;3.17;;;2.58;;
58615;SDS011;44385;51.992;4.206;2022-07-23T12:12:21;3.90;;;2.58;;
58615;SDS011;44385;51.992;4.206;2022-07-23T12:14:48;4.78;;;2.60;;
58615;SDS011;44385;51.992;4.206;2022-07-23T12:17:16;4.80;;;2.70;;
58615;SDS011;44385;51.992;4.206;2022-07-23T12:19:43;4.53;;;2.33;;
58615;SDS011;44385;51.992;4.206;2022-07-23T12:22:10;3.33;;;2.67;;
58615;SDS011;44385;51.992;4.206;2022-07-23T12:27:19;5.00;;;2.78;;
58615;SDS011;44385;51.992;4.206;2022-07-23T12:29:46;8.30;;;3.55;;
58615;SDS011;44385;51.992;4.206;2022-07-23T12:32:18;3.88;;;2.58;;
58615;SDS011;44385;51.992;4.206;2022-07-23T12:34:44;17.08;;;4.10;;
58615;SDS011;44385;51.992;4.206;2022-07-23T12:37:24;4.82;;;2.05;;
58615;SDS011;44385;51.992;4.206;2022-07-23T12:39:51;3.83;;;2.05;;
58615;SDS011;44385;51.992;4.206;2022-07-23T12:42:18;7.65;;;2.17;;
58615;SDS011;44385;51.992;4.206;2022-07-23T12:47:28;3.25;;;2.50;;
58615;SDS011;44385;51.992;4.206;2022-07-23T12:49:54;6.35;;;2.90;;
58615;SDS011;44385;51.992;4.206;2022-07-23T12:52:21;4.82;;;2.30;;
58615;SDS011;44385;51.992;4.206;2022-07-23T12:54:47;4.38;;;2.50;;
58615;SDS011;44385;51.992;4.206;2022-07-23T12:57:14;3.65;;;2.17;;
58615;SDS011;44385;51.992;4.206;2022-07-23T12:59:40;3.47;;;2.13;;
58615;SDS011;44385;51.992;4.206;2022-07-23T13:02:08;8.82;;;2.58;;
58615;SDS011;44385;51.992;4.206;2022-07-23T13:04:36;7.55;;;2.72;;
58615;SDS011;44385;51.992;4.206;2022-07-23T13:07:02;2.35;;;1.90;;
58615;SDS011;44385;51.992;4.206;2022-07-23T13:09:30;6.20;;;2.53;;
58615;SDS011;44385;51.992;4.206;2022-07-23T13:11:56;4.70;;;2.22;;
58615;SDS011;44385;51.992;4.206;2022-07-23T13:14:24;3.08;;;1.88;;
58615;SDS011;44385;51.992;4.206;2022-07-23T13:16:51;4.97;;;2.25;;
58615;SDS011;44385;51.992;4.206;2022-07-23T13:19:18;5.88;;;2.95;;
58615;SDS011;44385;51.992;4.206;2022-07-23T13:21:48;4.03;;;2.30;;
58615;SDS011;44385;51.992;4.206;2022-07-23T13:24:17;3.25;;;2.22;;
58615;SDS011;44385;51.992;4.206;2022-07-23T13:26:44;4.70;;;2.15;;
58615;SDS011;44385;51.992;4.206;2022-07-23T13:29:11;7.80;;;2.53;;
58615;SDS011;44385;51.992;4.206;2022-07-23T13:31:38;5.65;;;2.13;;
58615;SDS011;44385;51.992;4.206;2022-07-23T13:34:05;3.15;;;2.03;;
58615;SDS011;44385;51.992;4.206;2022-07-23T13:36:31;4.38;;;2.42;;
58615;SDS011;44385;51.992;4.206;2022-07-23T13:39:02;2.58;;;2.30;;
58615;SDS011;44385;51.992;4.206;2022-07-23T13:41:29;5.15;;;2.47;;
58615;SDS011;44385;51.992;4.206;2022-07-23T13:43:55;2.83;;;2.55;;
58615;SDS011;44385;51.992;4.206;2022-07-23T13:46:22;4.88;;;2.10;;
58615;SDS011;44385;51.992;4.206;2022-07-23T13:48:48;4.47;;;2.80;;
58615;SDS011;44385;51.992;4.206;2022-07-23T13:51:15;2.92;;;2.35;;
58615;SDS011;44385;51.992;4.206;2022-07-23T13:53:42;3.63;;;2.55;;
58615;SDS011;44385;51.992;4.206;2022-07-23T13:56:10;2.70;;;2.20;;
58615;SDS011;44385;51.992;4.206;2022-07-23T13:58:37;2.50;;;2.30;;
58615;SDS011;44385;51.992;4.206;2022-07-23T14:01:05;3.97;;;2.53;;
58615;SDS011;44385;51.992;4.206;2022-07-23T14:03:32;4.32;;;2.40;;
58615;SDS011;44385;51.992;4.206;2022-07-23T14:05:58;5.78;;;2.60;;
58615;SDS011;44385;51.992;4.206;2022-07-23T14:08:25;2.55;;;2.33;;
58615;SDS011;44385;51.992;4.206;2022-07-23T14:10:52;3.75;;;2.10;;
58615;SDS011;44385;51.992;4.206;2022-07-23T14:13:19;5.03;;;2.60;;
58615;SDS011;44385;51.992;4.206;2022-07-23T14:15:46;3.47;;;2.73;;
58615;SDS011;44385;51.992;4.206;2022-07-23T14:18:12;5.43;;;2.58;;
58615;SDS011;44385;51.992;4.206;2022-07-23T14:20:39;5.35;;;2.78;;
58615;SDS011;44385;51.992;4.206;2022-07-23T14:23:05;2.65;;;2.30;;
58615;SDS011;44385;51.992;4.206;2022-07-23T14:25:32;5.20;;;2.45;;
58615;SDS011;44385;51.992;4.206;2022-07-23T14:27:58;4.75;;;2.53;;
58615;SDS011;44385;51.992;4.206;2022-07-23T14:30:26;3.50;;;2.15;;
58615;SDS011;44385;51.992;4.206;2022-07-23T14:32:53;5.33;;;2.87;;
58615;SDS011;44385;51.992;4.206;2022-07-23T14:35:19;5.47;;;2.35;;
58615;SDS011;44385;51.992;4.206;2022-07-23T14:37:46;2.88;;;2.42;;
58615;SDS011;44385;51.992;4.206;2022-07-23T14:40:12;4.15;;;2.63;;
58615;SDS011;44385;51.992;4.206;2022-07-23T14:42:42;6.10;;;2.95;;
58615;SDS011;44385;51.992;4.206;2022-07-23T14:45:08;5.10;;;2.13;;
58615;SDS011;44385;51.992;4.206;2022-07-23T14:47:36;5.80;;;2.85;;
58615;SDS011;44385;51.992;4.206;2022-07-23T14:50:03;5.40;;;2.70;;
58615;SDS011;44385;51.992;4.206;2022-07-23T14:52:29;3.88;;;2.60;;
58615;SDS011;44385;51.992;4.206;2022-07-23T14:54:55;4.43;;;2.70;;
58615;SDS011;44385;51.992;4.206;2022-07-23T14:57:22;5.45;;;2.67;;
58615;SDS011;44385;51.992;4.206;2022-07-23T14:59:48;4.22;;;3.50;;
58615;SDS011;44385;51.992;4.206;2022-07-23T15:02:14;6.40;;;2.35;;
58615;SDS011;44385;51.992;4.206;2022-07-23T15:04:42;3.45;;;2.92;;
58615;SDS011;44385;51.992;4.206;2022-07-23T15:07:09;5.53;;;2.30;;
58615;SDS011;44385;51.992;4.206;2022-07-23T15:09:35;4.20;;;2.95;;
58615;SDS011;44385;51.992;4.206;2022-07-23T15:12:02;6.72;;;3.20;;
58615;SDS011;44385;51.992;4.206;2022-07-23T15:14:28;3.45;;;2.38;;